createdAt,value
2022-09-01T00:00:49.288Z,9.77
2022-09-01T00:03:19.112Z,9.93
2022-09-01T00:05:51.022Z,11.07
2022-09-01T00:08:19.522Z,10.33
2022-09-01T00:10:49.468Z,10.53
2022-09-01T00:13:18.783Z,10.83
2022-09-01T00:15:47.370Z,11.27
2022-09-01T00:18:15.853Z,11.07
2022-09-01T00:20:44.398Z,10.87
2022-09-01T00:23:12.845Z,11.03
2022-09-01T00:25:41.254Z,10.47
2022-09-01T00:28:10.996Z,10.00
2022-09-01T00:30:39.342Z,10.97
2022-09-01T00:33:08.155Z,10.50
2022-09-01T00:35:37.067Z,10.77
2022-09-01T00:38:05.829Z,10.97
2022-09-01T00:40:34.587Z,9.57
2022-09-01T00:43:03.149Z,10.27
2022-09-01T00:45:33.359Z,9.93
2022-09-01T00:48:01.638Z,10.83
2022-09-01T00:50:29.980Z,11.37
2022-09-01T00:52:58.625Z,9.93
2022-09-01T00:55:32.581Z,10.37
2022-09-01T00:58:02.682Z,11.77
2022-09-01T01:00:41.938Z,10.17
2022-09-01T01:03:11.626Z,10.23
2022-09-01T01:05:54.029Z,10.03
2022-09-01T01:08:30.902Z,9.83
2022-09-01T01:10:59.261Z,12.50
2022-09-01T01:13:28.759Z,11.07
2022-09-01T01:15:59.621Z,10.43
2022-09-01T01:18:28.161Z,9.23
2022-09-01T01:21:21.669Z,9.80
2022-09-01T01:23:57.750Z,12.57
2022-09-01T01:26:27.421Z,10.23
2022-09-01T01:28:56.167Z,9.43
2022-09-01T01:31:24.759Z,9.93
2022-09-01T01:33:58.885Z,10.17
2022-09-01T01:36:32.651Z,8.93
2022-09-01T01:39:05.104Z,8.93
2022-09-01T01:41:40.943Z,8.93
2022-09-01T01:44:09.934Z,10.10
2022-09-01T01:46:42.972Z,9.93
2022-09-01T01:49:13.356Z,8.10
2022-09-01T01:51:42.318Z,9.40
2022-09-01T01:54:10.715Z,9.63
2022-09-01T01:56:41.894Z,8.50
2022-09-01T01:59:15.428Z,8.57
2022-09-01T02:01:51.298Z,8.63
2022-09-01T02:04:21.684Z,8.70
2022-09-01T02:06:52.045Z,8.97
2022-09-01T02:09:23.277Z,10.57
2022-09-01T02:11:57.352Z,8.70
2022-09-01T02:14:26.189Z,7.80
2022-09-01T02:16:56.146Z,8.20
2022-09-01T02:19:24.669Z,8.10
2022-09-01T02:21:56.102Z,8.07
2022-09-01T02:24:26.456Z,8.83
2022-09-01T02:26:59.217Z,8.83
2022-09-01T02:29:28.808Z,8.43
2022-09-01T02:31:58.358Z,8.90
2022-09-01T02:34:29.017Z,7.97
2022-09-01T02:36:58.619Z,7.80
2022-09-01T02:39:32.692Z,7.30
2022-09-01T02:42:02.832Z,8.67
2022-09-01T02:44:32.701Z,7.60
2022-09-01T02:47:02.076Z,7.77
2022-09-01T02:49:31.391Z,8.03
2022-09-01T02:52:01.501Z,7.47
2022-09-01T02:54:31.957Z,7.37
2022-09-01T02:57:04.020Z,8.43
2022-09-01T02:59:34.882Z,9.30
2022-09-01T03:02:03.301Z,8.60
2022-09-01T03:04:35.088Z,7.90
2022-09-01T03:07:04.486Z,8.27
2022-09-01T03:09:35.155Z,8.47
2022-09-01T03:12:07.178Z,7.97
2022-09-01T03:14:35.569Z,8.80
2022-09-01T03:17:03.679Z,8.70
2022-09-01T03:19:40.213Z,8.30
2022-09-01T03:22:08.793Z,11.07
2022-09-01T03:24:37.310Z,7.80
2022-09-01T03:27:07.471Z,8.80
2022-09-01T03:29:36.981Z,7.97
2022-09-01T03:32:06.053Z,8.07
2022-09-01T03:34:36.911Z,8.80
2022-09-01T03:37:10.963Z,8.47
2022-09-01T03:39:39.705Z,9.10
2022-09-01T03:42:12.358Z,9.37
2022-09-01T03:44:42.016Z,10.27
2022-09-01T03:47:15.249Z,8.37
2022-09-01T03:49:45.490Z,8.67
2022-09-01T03:52:14.746Z,9.47
2022-09-01T03:54:43.861Z,8.40
2022-09-01T03:57:13.970Z,9.17
2022-09-01T03:59:45.269Z,8.80
2022-09-01T04:02:15.129Z,7.87
2022-09-01T04:04:43.712Z,8.83
2022-09-01T04:07:19.385Z,7.53
2022-09-01T04:09:47.875Z,8.20
2022-09-01T04:12:17.564Z,7.73
2022-09-01T04:14:48.051Z,8.30
2022-09-01T04:17:33.739Z,8.57
2022-09-01T04:20:08.822Z,9.23
2022-09-01T04:22:38.427Z,8.60
2022-09-01T04:25:08.963Z,8.20
2022-09-01T04:27:40.461Z,8.30
2022-09-01T04:30:11.688Z,8.37
2022-09-01T04:32:41.641Z,9.97
2022-09-01T04:35:16.859Z,8.10
2022-09-01T04:37:47.593Z,7.93
2022-09-01T04:40:18.649Z,9.63
2022-09-01T04:42:48.501Z,8.20
2022-09-01T04:45:20.803Z,8.60
2022-09-01T04:47:49.347Z,8.30
2022-09-01T04:50:18.134Z,8.27
2022-09-01T04:52:47.821Z,7.47
2022-09-01T04:55:18.529Z,7.30
2022-09-01T04:57:50.349Z,10.03
2022-09-01T05:00:25.521Z,8.17
2022-09-01T05:02:57.403Z,8.03
2022-09-01T05:05:27.273Z,7.70
2022-09-01T05:07:55.642Z,8.20
2022-09-01T05:10:29.961Z,8.73
2022-09-01T05:13:00.226Z,7.83
2022-09-01T05:15:30.764Z,8.20
2022-09-01T05:18:02.333Z,8.60
2022-09-01T05:20:32.041Z,7.47
2022-09-01T05:23:01.880Z,9.00
2022-09-01T05:25:30.199Z,8.90
2022-09-01T05:27:59.889Z,9.10
2022-09-01T05:30:28.771Z,7.67
2022-09-01T05:32:57.175Z,8.53
2022-09-01T05:35:32.886Z,9.37
2022-09-01T05:38:02.522Z,8.10
2022-09-01T05:40:32.099Z,9.07
2022-09-01T05:43:02.706Z,8.80
2022-09-01T05:45:44.935Z,8.33
2022-09-01T05:48:23.677Z,8.17
2022-09-01T05:50:56.217Z,8.43
2022-09-01T05:53:26.943Z,8.77
2022-09-01T05:55:57.019Z,8.07
2022-09-01T05:59:22.592Z,9.07
2022-09-01T06:01:22.148Z,8.37
2022-09-01T06:03:54.797Z,8.63
2022-09-01T06:06:24.877Z,8.50
2022-09-01T06:08:58.881Z,7.70
2022-09-01T06:11:33.060Z,8.17
2022-09-01T06:14:03.247Z,8.00
2022-09-01T06:16:31.882Z,9.47
2022-09-01T06:19:00.667Z,7.87
2022-09-01T06:21:29.372Z,7.83
2022-09-01T06:23:59.351Z,7.53
2022-09-01T06:26:31.087Z,7.00
2022-09-01T06:29:04.791Z,7.23
2022-09-01T06:31:39.185Z,7.50
2022-09-01T06:34:17.730Z,7.37
2022-09-01T06:36:48.384Z,8.07
2022-09-01T06:39:20.701Z,7.73
2022-09-01T06:41:52.995Z,7.43
2022-09-01T06:44:23.468Z,7.30
2022-09-01T06:46:53.098Z,7.27
2022-09-01T06:49:23.673Z,10.57
2022-09-01T06:51:52.787Z,7.00
2022-09-01T06:54:21.715Z,6.90
2022-09-01T06:56:51.603Z,6.73
2022-09-01T06:59:23.363Z,6.33
2022-09-01T07:02:01.489Z,6.23
2022-09-01T07:04:31.549Z,6.30
2022-09-01T07:08:04.583Z,5.90
2022-09-01T07:10:06.339Z,6.43
2022-09-01T07:13:04.787Z,5.50
2022-09-01T07:16:32.162Z,4.93
2022-09-01T07:18:21.357Z,5.10
2022-09-01T07:21:35.664Z,5.47
2022-09-01T07:26:29.104Z,4.60
2022-09-01T07:29:01.966Z,5.97
2022-09-01T07:31:50.570Z,5.43
2022-09-01T07:45:33.368Z,5.90
2022-09-01T07:48:06.478Z,3.80
2022-09-01T07:51:34.740Z,3.63
2022-09-01T07:53:31.623Z,3.87
2022-09-01T07:56:09.538Z,4.13
2022-09-01T07:58:40.290Z,3.07
2022-09-01T08:01:10.028Z,5.73
2022-09-01T08:03:40.003Z,3.10
2022-09-01T08:06:11.453Z,3.50
2022-09-01T08:08:41.557Z,4.03
2022-09-01T08:11:10.282Z,3.43
2022-09-01T08:13:42.000Z,3.50
2022-09-01T08:16:19.548Z,3.90
2022-09-01T08:18:50.427Z,3.10
2022-09-01T08:21:22.214Z,2.90
2022-09-01T08:23:51.464Z,2.93
2022-09-01T08:26:22.318Z,2.60
2022-09-01T08:28:58.475Z,2.40
2022-09-01T08:31:30.653Z,4.20
2022-09-01T08:34:00.988Z,3.87
2022-09-01T08:36:29.248Z,2.70
2022-09-01T08:38:57.603Z,2.87
2022-09-01T08:41:40.884Z,3.03
2022-09-01T08:44:28.774Z,3.50
2022-09-01T08:47:02.897Z,3.07
2022-09-01T08:49:44.297Z,4.27
2022-09-01T08:52:25.636Z,4.90
2022-09-01T08:55:00.826Z,2.60
2022-09-01T08:57:34.933Z,2.70
2022-09-01T09:00:05.523Z,2.60
2022-09-01T09:02:53.941Z,2.57
2022-09-01T09:05:40.825Z,2.40
2022-09-01T09:08:40.585Z,2.50
2022-09-01T09:11:24.133Z,2.97
2022-09-01T09:14:07.230Z,3.40
2022-09-01T09:16:42.673Z,1.93
2022-09-01T09:19:18.227Z,3.17
2022-09-01T09:21:51.218Z,2.00
2022-09-01T09:24:47.243Z,2.47
2022-09-01T09:27:21.741Z,2.37
2022-09-01T09:29:53.461Z,1.97
2022-09-01T09:32:31.583Z,2.50
2022-09-01T09:35:23.437Z,2.07
2022-09-01T09:37:53.634Z,2.33
2022-09-01T09:40:25.442Z,2.27
2022-09-01T09:43:08.536Z,1.73
2022-09-01T09:45:41.988Z,2.97
2022-09-01T09:48:29.034Z,2.07
2022-09-01T09:50:57.573Z,1.47
2022-09-01T09:53:32.599Z,1.70
2022-09-01T09:56:05.288Z,1.83
2022-09-01T09:58:39.535Z,3.40
2022-09-01T10:01:16.282Z,2.17
2022-09-01T10:03:49.449Z,2.20
2022-09-01T10:06:34.523Z,1.60
2022-09-01T10:09:07.747Z,3.77
2022-09-01T10:11:41.558Z,2.07
2022-09-01T10:14:35.517Z,2.97
2022-09-01T10:17:15.735Z,1.83
2022-09-01T10:19:52.353Z,1.97
2022-09-01T10:22:21.734Z,2.60
2022-09-01T10:24:51.651Z,3.33
2022-09-01T10:27:25.270Z,2.30
2022-09-01T10:30:18.670Z,1.80
2022-09-01T10:32:55.826Z,2.37
2022-09-01T10:35:29.830Z,1.73
2022-09-01T10:38:00.502Z,3.97
2022-09-01T10:40:49.230Z,1.77
2022-09-01T10:43:36.333Z,1.57
2022-09-01T10:46:50.783Z,2.87
2022-09-01T10:50:07.723Z,2.40
2022-09-01T10:53:11.477Z,2.87
2022-09-01T10:55:48.424Z,4.37
2022-09-01T11:02:25.846Z,5.33
2022-09-01T11:05:16.934Z,1.80
2022-09-01T11:08:09.055Z,4.30
2022-09-01T11:10:50.090Z,2.00
2022-09-01T11:13:47.718Z,1.73
2022-09-01T11:16:52.386Z,3.10
2022-09-01T11:19:39.524Z,1.33
2022-09-01T11:22:25.953Z,1.50
2022-09-01T11:25:40.493Z,1.73
2022-09-01T11:28:47.656Z,2.30
2022-09-01T11:31:32.803Z,1.77
2022-09-01T11:34:15.000Z,1.87
2022-09-01T11:37:13.844Z,1.33
2022-09-01T11:39:47.916Z,2.50
2022-09-01T11:42:21.201Z,2.00
2022-09-01T11:44:58.799Z,1.57
2022-09-01T11:47:32.307Z,1.60
2022-09-01T11:50:03.900Z,2.50
2022-09-01T11:52:37.564Z,1.08
2022-09-01T11:55:08.565Z,1.63
2022-09-01T11:57:39.560Z,1.50
2022-09-01T12:00:12.893Z,2.53
2022-09-01T12:02:46.946Z,1.53
2022-09-01T12:05:32.646Z,3.53
2022-09-01T12:08:05.770Z,1.83
2022-09-01T12:10:37.671Z,2.23
2022-09-01T12:13:09.251Z,1.63
2022-09-01T12:16:00.390Z,1.30
2022-09-01T12:18:35.084Z,2.13
2022-09-01T12:21:07.899Z,2.50
2022-09-01T12:23:43.081Z,1.77
2022-09-01T12:26:15.150Z,1.67
2022-09-01T12:28:44.218Z,1.90
2022-09-01T12:31:18.995Z,1.47
2022-09-01T12:33:49.024Z,1.63
2022-09-01T12:36:24.944Z,3.70
2022-09-01T12:38:57.030Z,1.30
2022-09-01T12:41:38.949Z,2.73
2022-09-01T12:44:34.434Z,2.97
2022-09-01T12:47:06.830Z,2.47
2022-09-01T12:49:48.092Z,1.20
2022-09-01T12:52:27.154Z,1.87
2022-09-01T12:55:47.352Z,1.30
2022-09-01T12:58:06.274Z,2.87
2022-09-01T13:00:37.156Z,1.80
2022-09-01T13:03:14.503Z,2.47
2022-09-01T13:05:44.503Z,2.67
2022-09-01T13:08:15.820Z,1.90
2022-09-01T13:10:48.589Z,3.37
2022-09-01T13:13:18.364Z,1.50
2022-09-01T13:15:50.300Z,1.43
2022-09-01T13:18:19.530Z,2.50
2022-09-01T13:20:48.255Z,1.27
2022-09-01T13:23:17.596Z,2.30
2022-09-01T13:25:47.894Z,2.27
2022-09-01T13:28:18.139Z,1.33
2022-09-01T13:31:28.702Z,1.90
2022-09-01T13:39:20.386Z,1.10
2022-09-01T13:41:50.738Z,2.33
2022-09-01T13:44:19.563Z,1.83
2022-09-01T13:50:04.900Z,2.53
2022-09-01T13:52:24.731Z,1.33
2022-09-01T13:54:53.357Z,2.97
2022-09-01T13:57:23.104Z,1.93
2022-09-01T13:59:51.802Z,2.17
2022-09-01T14:02:20.450Z,1.63
2022-09-01T14:04:48.847Z,1.43
2022-09-01T14:07:18.889Z,1.30
2022-09-01T14:09:47.615Z,2.33
2022-09-01T14:12:15.958Z,3.30
2022-09-01T14:17:34.014Z,1.83
2022-09-01T14:20:02.640Z,2.53
2022-09-01T14:22:34.128Z,5.00
2022-09-01T14:25:05.580Z,2.10
2022-09-01T14:27:34.037Z,1.53
2022-09-01T14:30:04.117Z,1.57
2022-09-01T14:32:32.463Z,2.87
2022-09-01T14:35:01.725Z,1.13
2022-09-01T14:37:30.476Z,2.13
2022-09-01T14:39:59.743Z,1.53
2022-09-01T14:42:29.808Z,1.30
2022-09-01T14:44:58.440Z,3.67
2022-09-01T14:47:28.276Z,3.10
2022-09-01T14:49:57.274Z,1.40
2022-09-01T14:52:25.645Z,1.77
2022-09-01T14:54:54.059Z,2.13
2022-09-01T14:57:36.930Z,1.40
2022-09-01T15:00:12.416Z,3.70
2022-09-01T15:02:44.355Z,1.90
2022-09-01T15:05:14.062Z,11.27
2022-09-01T15:07:43.207Z,46.03
2022-09-01T15:10:16.157Z,11.17
2022-09-01T15:12:54.582Z,3.40
2022-09-01T15:15:23.675Z,2.07
2022-09-01T15:17:54.226Z,2.43
2022-09-01T15:20:41.088Z,1.50
2022-09-01T15:23:10.118Z,4.07
2022-09-01T15:25:38.683Z,2.80
2022-09-01T15:28:07.379Z,1.60
2022-09-01T15:30:36.991Z,1.40
2022-09-01T15:33:08.372Z,2.80
2022-09-01T15:35:39.609Z,2.80
2022-09-01T15:38:08.267Z,1.63
2022-09-01T15:40:40.208Z,8.03
2022-09-01T15:43:09.149Z,4.53
2022-09-01T15:45:37.715Z,2.90
2022-09-01T15:48:07.585Z,2.23
2022-09-01T15:50:36.026Z,1.43
2022-09-01T15:53:08.467Z,7.07
2022-09-01T15:55:42.306Z,5.87
2022-09-01T15:58:12.898Z,3.00
2022-09-01T16:00:43.165Z,3.23
2022-09-01T16:03:13.965Z,6.83
2022-09-01T16:05:42.739Z,5.17
2022-09-01T16:08:12.250Z,2.17
2022-09-01T16:10:42.311Z,5.50
2022-09-01T16:13:13.047Z,2.20
2022-09-01T16:15:48.269Z,3.33
2022-09-01T16:18:31.986Z,2.73
2022-09-01T16:21:09.952Z,2.10
2022-09-01T16:23:44.218Z,3.00
2022-09-01T16:26:12.891Z,2.97
2022-09-01T16:28:46.846Z,2.70
2022-09-01T16:31:21.280Z,2.57
2022-09-01T16:33:54.848Z,2.93
2022-09-01T16:36:38.545Z,1.73
2022-09-01T16:39:18.474Z,2.00
2022-09-01T16:41:58.711Z,2.33
2022-09-01T16:44:45.126Z,1.17
2022-09-01T16:47:35.886Z,2.30
2022-09-01T16:50:17.960Z,1.60
2022-09-01T16:53:09.939Z,1.40
2022-09-01T16:55:48.793Z,2.70
2022-09-01T16:58:24.013Z,1.50
2022-09-01T17:01:06.082Z,4.90
2022-09-01T17:03:43.035Z,2.37
2022-09-01T17:06:22.804Z,2.30
2022-09-01T17:08:55.409Z,2.20
2022-09-01T17:11:34.605Z,2.80
2022-09-01T17:14:04.501Z,2.07
2022-09-01T17:16:39.508Z,1.70
2022-09-01T17:19:12.996Z,2.03
2022-09-01T17:21:52.864Z,2.00
2022-09-01T17:24:35.191Z,1.50
2022-09-01T17:27:11.004Z,1.93
2022-09-01T17:29:44.942Z,1.40
2022-09-01T17:32:48.283Z,1.40
2022-09-01T17:35:24.980Z,3.00
2022-09-01T17:38:09.004Z,3.73
2022-09-01T17:40:58.366Z,2.40
2022-09-01T17:43:42.997Z,2.73
2022-09-01T17:46:20.498Z,3.47
2022-09-01T17:48:54.364Z,2.60
2022-09-01T17:51:30.651Z,2.33
2022-09-01T17:54:12.809Z,4.10
2022-09-01T17:56:52.784Z,1.50
2022-09-01T17:59:31.871Z,2.77
2022-09-01T18:02:19.146Z,2.30
2022-09-01T18:05:05.823Z,2.70
2022-09-01T18:07:56.986Z,1.83
2022-09-01T18:10:31.997Z,1.23
2022-09-01T18:13:07.414Z,1.87
2022-09-01T18:15:51.826Z,2.17
2022-09-01T18:18:36.417Z,1.60
2022-09-01T18:21:09.492Z,1.80
2022-09-01T18:23:40.911Z,1.63
2022-09-01T18:26:24.554Z,2.10
2022-09-01T18:28:55.743Z,1.67
2022-09-01T18:31:56.952Z,4.00
2022-09-01T18:34:39.298Z,2.10
2022-09-01T18:37:15.487Z,3.17
2022-09-01T18:39:53.411Z,2.03
2022-09-01T18:42:32.053Z,3.00
2022-09-01T18:45:09.605Z,2.83
2022-09-01T18:47:49.158Z,1.90
2022-09-01T18:50:25.118Z,3.73
2022-09-01T18:53:13.270Z,4.43
2022-09-01T18:55:52.724Z,2.10
2022-09-01T18:58:38.209Z,1.53
2022-09-01T19:01:09.608Z,2.30
2022-09-01T19:03:43.591Z,2.30
2022-09-01T19:06:28.497Z,1.63
2022-09-01T19:09:09.690Z,2.50
2022-09-01T19:11:59.748Z,2.47
2022-09-01T19:14:42.753Z,2.93
2022-09-01T19:17:57.524Z,2.37
2022-09-01T19:20:45.118Z,2.93
2022-09-01T19:23:21.905Z,2.10
2022-09-01T19:25:52.582Z,2.10
2022-09-01T19:28:26.881Z,2.83
2022-09-01T19:31:19.103Z,3.83
2022-09-01T19:33:52.071Z,1.30
2022-09-01T19:36:27.609Z,2.17
2022-09-01T19:38:58.471Z,1.80
2022-09-01T19:41:33.981Z,2.23
2022-09-01T19:44:14.269Z,2.33
2022-09-01T19:46:49.542Z,3.27
2022-09-01T19:49:29.906Z,2.17
2022-09-01T19:52:08.683Z,2.07
2022-09-01T19:54:47.603Z,3.10
2022-09-01T19:57:23.225Z,2.20
2022-09-01T19:59:59.611Z,3.13
2022-09-01T20:02:36.970Z,1.83
2022-09-01T20:05:14.464Z,3.23
2022-09-01T20:07:49.032Z,1.63
2022-09-01T20:10:51.615Z,2.10
2022-09-01T20:13:52.959Z,2.33
2022-09-01T20:16:31.853Z,4.20
2022-09-01T20:19:07.152Z,4.17
2022-09-01T20:21:39.919Z,2.33
2022-09-01T20:24:18.074Z,2.03
2022-09-01T20:26:57.638Z,2.30
2022-09-01T20:29:36.860Z,4.07
2022-09-01T20:32:05.973Z,3.93
2022-09-01T20:34:43.259Z,2.80
2022-09-01T20:37:21.152Z,2.20
2022-09-01T20:40:01.873Z,2.10
2022-09-01T20:42:42.180Z,2.03
2022-09-01T20:45:15.832Z,2.40
2022-09-01T20:47:51.382Z,5.97
2022-09-01T20:50:26.194Z,1.80
2022-09-01T20:53:18.841Z,1.90
2022-09-01T20:55:53.951Z,5.77
2022-09-01T20:58:33.325Z,2.50
2022-09-01T21:01:18.004Z,4.50
2022-09-01T21:04:05.884Z,2.17
2022-09-01T21:06:50.269Z,2.00
2022-09-01T21:09:30.035Z,2.40
2022-09-01T21:12:08.406Z,2.37
2022-09-01T21:14:50.903Z,2.07
2022-09-01T21:17:30.448Z,2.37
2022-09-01T21:20:10.008Z,2.30
2022-09-01T21:22:39.697Z,4.33
2022-09-01T21:25:08.524Z,3.57
2022-09-01T21:27:44.128Z,4.33
2022-09-01T21:30:15.605Z,3.00
2022-09-01T21:32:44.489Z,2.07
2022-09-01T21:35:21.190Z,2.50
2022-09-01T21:37:51.581Z,3.27
2022-09-01T21:40:23.435Z,3.63
2022-09-01T21:42:55.947Z,2.40
2022-09-01T21:45:25.112Z,2.30
2022-09-01T21:47:54.633Z,2.20
2022-09-01T21:50:25.636Z,2.73
2022-09-01T21:52:55.433Z,3.10
2022-09-01T21:55:24.839Z,2.43
2022-09-01T21:57:53.849Z,4.40
2022-09-01T22:00:26.833Z,3.93
2022-09-01T22:02:57.614Z,2.83
2022-09-01T22:05:26.310Z,2.00
2022-09-01T22:07:58.978Z,6.73
2022-09-01T22:10:32.264Z,2.33
2022-09-01T22:13:03.530Z,3.00
2022-09-01T22:15:32.711Z,2.40
2022-09-01T22:18:01.068Z,2.53
2022-09-01T22:20:31.956Z,2.00
2022-09-01T22:23:02.950Z,2.07
2022-09-01T22:25:34.270Z,2.50
2022-09-01T22:28:05.254Z,2.13
2022-09-01T22:30:34.660Z,6.17
2022-09-01T22:33:07.628Z,3.97
2022-09-01T22:35:36.267Z,3.10
2022-09-01T22:38:05.947Z,1.90
2022-09-01T22:40:34.341Z,2.13
2022-09-01T22:43:04.155Z,2.93
2022-09-01T22:45:32.474Z,2.97
2022-09-01T22:48:00.809Z,2.70
2022-09-01T22:50:29.157Z,4.80
2022-09-01T22:52:57.643Z,1.93
2022-09-01T22:55:28.153Z,2.97
2022-09-01T22:57:56.434Z,1.87
2022-09-01T23:00:24.778Z,1.97
2022-09-01T23:02:53.103Z,3.60
2022-09-01T23:05:23.173Z,2.70
2022-09-01T23:07:52.671Z,3.30
2022-09-01T23:10:21.326Z,3.53
2022-09-01T23:12:51.073Z,3.77
2022-09-01T23:15:19.611Z,4.13
2022-09-01T23:17:47.999Z,2.10
2022-09-01T23:20:16.623Z,3.40
2022-09-01T23:22:46.352Z,2.53
2022-09-01T23:25:16.903Z,2.20
2022-09-01T23:27:45.566Z,2.23
2022-09-01T23:30:16.895Z,2.27
2022-09-01T23:32:45.322Z,2.20
2022-09-01T23:35:14.011Z,2.33
2022-09-01T23:37:44.939Z,2.63
2022-09-01T23:40:14.219Z,2.17
2022-09-01T23:42:42.616Z,2.60
2022-09-01T23:45:12.446Z,2.77
2022-09-01T23:47:42.131Z,3.67
2022-09-01T23:50:11.518Z,2.40
2022-09-01T23:52:39.810Z,2.43
2022-09-01T23:55:09.590Z,5.53
2022-09-01T23:57:38.400Z,2.23
